createdAt,value
2018-12-01T00:00:25.413Z,100.00
2018-12-01T00:02:54.377Z,100.00
2018-12-01T00:05:23.337Z,100.00
2018-12-01T00:07:52.538Z,99.16
2018-12-01T00:10:21.480Z,99.38
2018-12-01T00:12:50.413Z,98.92
2018-12-01T00:15:21.583Z,99.68
2018-12-01T00:17:50.571Z,99.29
2018-12-01T00:20:22.629Z,99.52
2018-12-01T00:22:51.556Z,99.68
2018-12-01T00:25:20.514Z,99.38
2018-12-01T00:27:49.448Z,98.93
2018-12-01T00:30:23.316Z,99.44
2018-12-01T00:32:52.420Z,98.67
2018-12-01T00:35:21.354Z,99.96
2018-12-01T00:37:50.297Z,99.33
2018-12-01T00:40:20.089Z,100.00
2018-12-01T00:42:49.094Z,100.00
2018-12-01T00:45:20.845Z,100.00
2018-12-01T00:47:50.769Z,100.00
2018-12-01T00:50:21.831Z,100.00
2018-12-01T00:52:51.454Z,100.00
2018-12-01T00:55:20.799Z,100.00
2018-12-01T00:57:49.819Z,100.00
2018-12-01T01:00:24.242Z,100.00
2018-12-01T01:02:57.602Z,99.40
2018-12-01T01:05:27.446Z,99.80
2018-12-01T01:07:57.150Z,99.25
2018-12-01T01:10:27.269Z,99.13
2018-12-01T01:12:56.204Z,98.74
2018-12-01T01:15:25.153Z,98.62
2018-12-01T01:17:54.096Z,98.18
2018-12-01T01:20:24.205Z,97.00
2018-12-01T01:22:53.257Z,96.91
2018-12-01T01:25:22.211Z,96.28
2018-12-01T01:27:51.143Z,95.79
2018-12-01T01:31:23.198Z,95.93
2018-12-01T01:33:52.152Z,95.26
2018-12-01T01:36:21.109Z,96.14
2018-12-01T01:38:50.071Z,96.38
2018-12-01T01:41:19.006Z,95.43
2018-12-01T01:43:47.955Z,94.89
2018-12-01T01:46:16.886Z,94.49
2018-12-01T01:48:45.827Z,95.87
2018-12-01T01:51:14.749Z,95.86
2018-12-01T01:53:43.724Z,95.51
2018-12-01T01:56:12.648Z,95.17
2018-12-01T01:58:41.570Z,95.92
2018-12-01T02:01:10.513Z,95.91
2018-12-01T02:03:39.567Z,96.10
2018-12-01T02:06:08.505Z,95.02
2018-12-01T02:08:37.442Z,96.09
2018-12-01T02:11:06.890Z,96.80
2018-12-01T02:13:35.832Z,97.31
2018-12-01T02:16:04.866Z,97.36
2018-12-01T02:18:33.793Z,97.47
2018-12-01T02:21:02.734Z,97.52
2018-12-01T02:23:31.713Z,97.74
2018-12-01T02:26:00.644Z,98.18
2018-12-01T02:28:29.582Z,98.44
2018-12-01T02:30:58.532Z,98.77
2018-12-01T02:33:27.485Z,100.00
2018-12-01T02:35:56.429Z,100.00
2018-12-01T02:38:25.435Z,100.00
2018-12-01T02:40:54.442Z,100.00
2018-12-01T02:43:23.429Z,100.00
2018-12-01T02:46:03.254Z,100.00
2018-12-01T02:48:32.233Z,100.00
2018-12-01T02:51:01.174Z,100.00
2018-12-01T02:53:30.129Z,100.00
2018-12-01T02:55:59.098Z,100.00
2018-12-01T02:58:28.021Z,100.00
2018-12-01T03:00:56.976Z,100.00
2018-12-01T03:03:26.010Z,100.00
2018-12-01T03:05:54.940Z,100.00
2018-12-01T03:08:23.877Z,100.00
2018-12-01T03:10:52.823Z,100.00
2018-12-01T03:13:21.765Z,100.00
2018-12-01T03:15:50.715Z,100.00
2018-12-01T03:18:19.654Z,100.00
2018-12-01T03:20:48.589Z,100.00
2018-12-01T03:23:17.532Z,100.00
2018-12-01T03:25:46.604Z,100.00
2018-12-01T03:28:15.532Z,100.00
2018-12-01T03:30:44.484Z,100.00
2018-12-01T03:33:13.425Z,100.00
2018-12-01T03:35:42.413Z,100.00
2018-12-01T03:38:11.362Z,100.00
2018-12-01T03:40:45.436Z,100.00
2018-12-01T03:43:14.390Z,100.00
2018-12-01T03:45:43.329Z,100.00
2018-12-01T03:48:12.310Z,100.00
2018-12-01T03:50:41.259Z,100.00
2018-12-01T03:53:11.820Z,100.00
2018-12-01T03:55:40.769Z,100.00
2018-12-01T03:58:09.723Z,100.00
2018-12-01T04:00:38.663Z,100.00
2018-12-01T04:03:08.121Z,100.00
2018-12-01T04:05:37.075Z,100.00
2018-12-01T04:08:06.028Z,100.00
2018-12-01T04:10:34.978Z,99.32
2018-12-01T04:13:03.915Z,98.79
2018-12-01T04:15:32.861Z,98.95
2018-12-01T04:18:01.786Z,99.34
2018-12-01T04:20:30.733Z,98.43
2018-12-01T04:22:59.657Z,98.00
2018-12-01T04:25:28.657Z,98.01
2018-12-01T04:27:57.589Z,98.46
2018-12-01T04:30:26.989Z,98.21
2018-12-01T04:32:56.009Z,97.98
2018-12-01T04:35:25.376Z,98.20
2018-12-01T04:37:55.323Z,98.15
2018-12-01T04:40:24.634Z,98.95
2018-12-01T04:42:53.677Z,97.83
2018-12-01T04:45:22.636Z,98.51
2018-12-01T04:47:51.672Z,98.79
2018-12-01T04:50:20.638Z,98.93
2018-12-01T04:52:49.970Z,98.44
2018-12-01T04:55:19.916Z,98.98
2018-12-01T04:57:48.885Z,98.44
2018-12-01T05:00:19.503Z,98.97
2018-12-01T05:02:48.429Z,98.56
2018-12-01T05:05:18.471Z,99.40
2018-12-01T05:07:47.438Z,98.90
2018-12-01T05:10:17.077Z,99.68
2018-12-01T05:12:46.020Z,99.46
2018-12-01T05:15:15.949Z,100.00
2018-12-01T05:17:45.155Z,100.00
2018-12-01T05:20:17.868Z,100.00
2018-12-01T05:22:46.844Z,100.00
2018-12-01T05:25:15.785Z,100.00
2018-12-01T05:27:44.769Z,99.42
2018-12-01T05:30:13.716Z,99.95
2018-12-01T05:32:42.653Z,99.02
2018-12-01T05:35:16.185Z,98.58
2018-12-01T05:37:45.146Z,98.54
2018-12-01T05:40:14.417Z,98.71
2018-12-01T05:42:43.360Z,98.91
2018-12-01T05:45:28.777Z,98.78
2018-12-01T05:47:57.737Z,98.34
2018-12-01T05:50:27.310Z,97.52
2018-12-01T05:52:57.098Z,98.89
2018-12-01T05:55:26.134Z,98.59
2018-12-01T05:57:55.069Z,99.14
2018-12-01T06:00:24.017Z,98.27
2018-12-01T06:02:52.942Z,99.24
2018-12-01T06:05:21.889Z,98.57
2018-12-01T06:07:50.830Z,98.28
2018-12-01T06:10:20.744Z,98.12
2018-12-01T06:12:50.534Z,99.28
2018-12-01T06:15:19.948Z,98.49
2018-12-01T06:17:48.890Z,97.45
2018-12-01T06:20:20.177Z,97.75
2018-12-01T06:22:49.267Z,98.46
2018-12-01T06:25:19.297Z,97.68
2018-12-01T06:27:48.242Z,97.34
2018-12-01T06:30:18.100Z,97.58
2018-12-01T06:32:47.724Z,97.05
2018-12-01T06:35:16.760Z,96.10
2018-12-01T06:37:45.698Z,95.30
2018-12-01T06:40:17.670Z,95.21
2018-12-01T06:42:46.603Z,95.59
2018-12-01T06:45:16.273Z,95.92
2018-12-01T06:47:45.271Z,94.38
2018-12-01T06:50:16.234Z,94.98
2018-12-01T06:52:46.246Z,93.85
2018-12-01T06:55:15.509Z,92.52
2018-12-01T06:57:45.639Z,90.38
2018-12-01T07:00:19.443Z,88.56
2018-12-01T07:02:48.891Z,88.62
2018-12-01T07:05:18.209Z,88.98
2018-12-01T07:07:47.156Z,89.86
2018-12-01T07:10:18.077Z,90.28
2018-12-01T07:12:49.525Z,90.70
2018-12-01T07:15:26.914Z,92.31
2018-12-01T07:17:55.957Z,92.62
2018-12-01T07:20:24.895Z,93.20
2018-12-01T07:22:53.926Z,92.91
2018-12-01T07:25:22.907Z,92.46
2018-12-01T07:27:51.875Z,91.23
2018-12-01T07:30:20.833Z,90.83
2018-12-01T07:32:49.749Z,89.49
2018-12-01T07:35:18.716Z,88.98
2018-12-01T07:37:47.637Z,89.39
2018-12-01T07:40:17.783Z,90.45
2018-12-01T07:42:46.815Z,90.40
2018-12-01T07:45:16.444Z,90.42
2018-12-01T07:47:45.395Z,90.73
2018-12-01T07:50:16.292Z,90.40
2018-12-01T07:52:46.726Z,89.99
2018-12-01T07:55:15.678Z,89.32
2018-12-01T07:57:44.617Z,87.72
2018-12-01T08:00:14.645Z,87.11
2018-12-01T08:02:44.749Z,86.51
2018-12-01T08:05:13.686Z,87.14
2018-12-01T08:07:42.658Z,87.34
2018-12-01T08:10:12.646Z,87.76
2018-12-01T08:12:41.639Z,86.80
2018-12-01T08:15:18.817Z,86.63
2018-12-01T08:17:48.159Z,86.13
2018-12-01T08:20:17.880Z,85.75
2018-12-01T08:22:46.904Z,86.62
2018-12-01T08:25:20.721Z,87.03
2018-12-01T08:27:52.960Z,85.74
2018-12-01T08:30:23.214Z,86.10
2018-12-01T08:32:52.161Z,86.91
2018-12-01T08:35:21.219Z,86.88
2018-12-01T08:37:50.208Z,87.25
2018-12-01T08:40:20.438Z,86.33
2018-12-01T08:42:49.428Z,86.02
2018-12-01T08:45:18.383Z,85.16
2018-12-01T08:47:47.354Z,85.20
2018-12-01T08:50:19.210Z,85.20
2018-12-01T08:52:48.152Z,83.22
2018-12-01T08:55:19.007Z,82.92
2018-12-01T08:57:48.040Z,82.21
2018-12-01T09:00:20.065Z,82.49
2018-12-01T09:02:50.663Z,82.80
2018-12-01T09:05:19.620Z,81.45
2018-12-01T09:07:48.611Z,80.79
2018-12-01T09:10:17.582Z,79.09
2018-12-01T09:12:46.520Z,78.24
2018-12-01T09:15:15.478Z,78.63
2018-12-01T09:17:44.416Z,78.42
2018-12-01T09:20:14.138Z,77.19
2018-12-01T09:22:44.984Z,76.00
2018-12-01T09:25:16.954Z,76.76
2018-12-01T09:27:46.183Z,76.57
2018-12-01T09:30:21.545Z,75.33
2018-12-01T09:32:50.525Z,75.08
2018-12-01T09:35:19.462Z,74.85
2018-12-01T09:37:48.457Z,75.35
2018-12-01T09:40:19.613Z,74.77
2018-12-01T09:42:48.654Z,72.11
2018-12-01T09:45:19.750Z,72.46
2018-12-01T09:47:49.873Z,71.20
2018-12-01T09:50:18.804Z,72.14
2018-12-01T09:52:49.020Z,71.20
2018-12-01T09:55:22.072Z,69.27
2018-12-01T09:57:51.040Z,67.98
2018-12-01T10:00:29.166Z,66.55
2018-12-01T10:02:58.355Z,67.36
2018-12-01T10:05:27.283Z,67.26
2018-12-01T10:07:56.261Z,65.72
2018-12-01T10:10:25.261Z,65.69
2018-12-01T10:12:55.358Z,63.58
2018-12-01T10:15:26.505Z,63.73
2018-12-01T10:17:55.545Z,66.00
2018-12-01T10:20:27.681Z,65.46
2018-12-01T10:22:56.688Z,64.82
2018-12-01T10:25:25.656Z,65.39
2018-12-01T10:27:54.590Z,66.71
2018-12-01T10:30:23.620Z,65.49
2018-12-01T10:32:52.997Z,64.01
2018-12-01T10:35:23.997Z,63.29
2018-12-01T10:37:58.394Z,60.90
2018-12-01T10:40:27.349Z,61.04
2018-12-01T10:42:56.341Z,61.60
2018-12-01T10:45:25.289Z,60.75
2018-12-01T10:47:54.229Z,61.77
2018-12-01T10:50:23.997Z,61.11
2018-12-01T10:52:54.024Z,61.32
2018-12-01T10:55:28.870Z,61.05
2018-12-01T10:58:04.184Z,62.17
2018-12-01T11:00:38.437Z,60.50
2018-12-01T11:03:13.080Z,60.34
2018-12-01T11:05:42.253Z,57.64
2018-12-01T11:08:12.846Z,55.62
2018-12-01T11:10:41.805Z,55.19
2018-12-01T11:13:10.743Z,55.24
2018-12-01T11:15:39.728Z,54.85
2018-12-01T11:18:08.669Z,57.49
2018-12-01T11:20:37.634Z,59.48
2018-12-01T11:23:06.895Z,58.97
2018-12-01T11:25:35.861Z,59.64
2018-12-01T11:28:04.797Z,60.78
2018-12-01T11:30:33.733Z,61.48
2018-12-01T11:33:02.709Z,64.07
2018-12-01T11:35:31.644Z,64.04
2018-12-01T11:38:00.617Z,65.70
2018-12-01T11:40:29.550Z,66.15
2018-12-01T11:42:58.470Z,68.63
2018-12-01T11:45:27.406Z,68.97
2018-12-01T11:47:56.335Z,68.88
2018-12-01T11:50:25.262Z,71.06
2018-12-01T11:52:54.185Z,72.17
2018-12-01T11:55:23.945Z,71.40
2018-12-01T11:57:53.540Z,71.88
2018-12-01T12:00:24.672Z,71.70
2018-12-01T12:02:53.644Z,71.20
2018-12-01T12:05:22.627Z,72.67
2018-12-01T12:08:32.934Z,73.34
2018-12-01T12:11:01.880Z,73.65
2018-12-01T12:13:30.831Z,74.07
2018-12-01T12:15:59.776Z,75.54
2018-12-01T12:18:28.955Z,75.83
2018-12-01T12:20:57.767Z,77.01
2018-12-01T12:23:26.728Z,75.77
2018-12-01T12:25:55.793Z,76.22
2018-12-01T12:28:24.782Z,78.03
2018-12-01T12:30:53.733Z,78.09
2018-12-01T12:33:22.671Z,78.94
2018-12-01T12:35:51.665Z,78.93
2018-12-01T12:38:20.602Z,80.68
2018-12-01T12:40:49.540Z,78.72
2018-12-01T12:43:18.481Z,80.19
2018-12-01T12:45:47.441Z,79.73
2018-12-01T12:48:16.383Z,79.68
2018-12-01T12:50:45.323Z,79.75
2018-12-01T12:53:14.261Z,80.57
2018-12-01T12:55:43.216Z,81.68
2018-12-01T12:58:12.170Z,82.18
2018-12-01T13:00:41.121Z,82.88
2018-12-01T13:03:11.298Z,82.98
2018-12-01T13:05:43.349Z,83.28
2018-12-01T13:08:13.672Z,83.91
2018-12-01T13:10:42.616Z,84.58
2018-12-01T13:13:11.574Z,84.51
2018-12-01T13:15:40.721Z,84.89
2018-12-01T13:18:13.546Z,85.38
2018-12-01T13:20:43.659Z,85.68
2018-12-01T13:23:12.642Z,85.60
2018-12-01T13:25:42.418Z,86.07
2018-12-01T13:28:18.731Z,85.40
2018-12-01T13:30:52.271Z,85.92
2018-12-01T13:33:21.227Z,85.04
2018-12-01T13:35:50.186Z,85.34
2018-12-01T13:38:19.294Z,85.61
2018-12-01T13:40:48.295Z,86.31
2018-12-01T13:43:17.249Z,87.02
2018-12-01T13:45:46.192Z,86.82
2018-12-01T13:48:15.132Z,87.79
2018-12-01T13:50:44.100Z,88.47
2018-12-01T13:53:14.089Z,88.80
2018-12-01T13:55:43.063Z,88.87
2018-12-01T13:58:12.062Z,89.62
2018-12-01T14:00:41.493Z,90.14
2018-12-01T14:03:10.969Z,90.31
2018-12-01T14:05:41.117Z,90.43
2018-12-01T14:08:10.058Z,90.85
2018-12-01T14:10:40.728Z,91.42
2018-12-01T14:13:11.176Z,91.92
2018-12-01T14:15:40.173Z,92.17
2018-12-01T14:18:09.244Z,92.75
2018-12-01T14:20:38.221Z,92.79
2018-12-01T14:23:07.186Z,93.32
2018-12-01T14:25:36.157Z,93.73
2018-12-01T14:28:06.715Z,94.00
2018-12-01T14:30:35.831Z,94.13
2018-12-01T14:33:04.874Z,94.70
2018-12-01T14:35:36.129Z,95.02
2018-12-01T14:38:14.300Z,95.57
2018-12-01T14:40:44.592Z,95.76
2018-12-01T14:43:13.596Z,95.97
2018-12-01T14:45:43.541Z,96.18
2018-12-01T14:48:12.486Z,97.33
2018-12-01T14:50:41.458Z,97.18
2018-12-01T14:53:11.763Z,97.11
2018-12-01T14:55:40.708Z,97.33
2018-12-01T14:58:09.677Z,97.71
2018-12-01T15:00:38.757Z,97.76
2018-12-01T15:03:08.608Z,97.87
2018-12-01T15:05:38.121Z,98.43
2018-12-01T15:08:07.606Z,98.61
2018-12-01T15:10:36.600Z,98.80
2018-12-01T15:13:05.706Z,99.18
2018-12-01T15:15:34.672Z,99.28
2018-12-01T15:18:03.627Z,99.25
2018-12-01T15:20:32.650Z,99.92
2018-12-01T15:23:01.602Z,99.92
2018-12-01T15:25:31.108Z,100.00
2018-12-01T15:28:00.068Z,99.88
2018-12-01T15:30:29.801Z,100.00
2018-12-01T15:33:15.726Z,100.00
2018-12-01T15:35:45.609Z,100.00
2018-12-01T15:38:14.660Z,100.00
2018-12-01T15:40:45.240Z,100.00
2018-12-01T15:43:14.199Z,100.00
2018-12-01T15:45:43.175Z,100.00
2018-12-01T15:48:12.120Z,100.00
2018-12-01T15:50:41.172Z,100.00
2018-12-01T15:53:12.412Z,100.00
2018-12-01T15:55:41.373Z,100.00
2018-12-01T15:58:10.384Z,100.00
2018-12-01T16:00:40.724Z,100.00
2018-12-01T16:03:09.667Z,100.00
2018-12-01T16:05:38.628Z,100.00
2018-12-01T16:10:52.539Z,100.00
2018-12-01T16:13:22.845Z,100.00
2018-12-01T16:15:54.194Z,100.00
2018-12-01T16:18:23.233Z,100.00
2018-12-01T16:20:52.201Z,100.00
2018-12-01T16:23:21.814Z,100.00
2018-12-01T16:25:50.769Z,100.00
2018-12-01T16:28:19.726Z,100.00
2018-12-01T16:30:48.738Z,100.00
2018-12-01T16:33:19.845Z,99.88
2018-12-01T16:35:49.508Z,100.00
2018-12-01T16:38:21.066Z,100.00
2018-12-01T16:41:17.342Z,99.68
2018-12-01T16:43:46.302Z,100.00
2018-12-01T16:46:15.332Z,100.00
2018-12-01T16:48:44.281Z,100.00
2018-12-01T16:51:13.243Z,100.00
2018-12-01T16:53:42.230Z,100.00
2018-12-01T16:56:11.192Z,100.00
2018-12-01T16:58:40.145Z,100.00
2018-12-01T17:01:09.109Z,100.00
2018-12-01T17:03:38.075Z,100.00
2018-12-01T17:06:17.355Z,100.00
2018-12-01T17:08:46.405Z,100.00
2018-12-01T17:11:15.387Z,100.00
2018-12-01T17:13:44.365Z,100.00
2018-12-01T17:16:13.316Z,100.00
2018-12-01T17:18:42.292Z,100.00
2018-12-01T17:21:11.257Z,100.00
2018-12-01T17:23:40.212Z,100.00
2018-12-01T17:26:09.155Z,100.00
2018-12-01T17:28:38.112Z,100.00
2018-12-01T17:31:07.868Z,100.00
2018-12-01T17:33:37.013Z,100.00
2018-12-01T17:36:06.104Z,100.00
2018-12-01T17:38:35.126Z,100.00
2018-12-01T17:41:10.857Z,100.00
2018-12-01T17:43:50.136Z,100.00
2018-12-01T17:46:19.194Z,100.00
2018-12-01T17:48:48.198Z,100.00
2018-12-01T17:51:17.169Z,100.00
2018-12-01T17:53:48.005Z,100.00
2018-12-01T17:56:16.977Z,100.00
2018-12-01T17:58:45.938Z,100.00
2018-12-01T18:01:14.956Z,100.00
2018-12-01T18:03:43.918Z,100.00
2018-12-01T18:06:13.789Z,100.00
2018-12-01T18:08:42.908Z,100.00
2018-12-01T18:11:12.495Z,100.00
2018-12-01T18:13:41.513Z,100.00
2018-12-01T18:16:10.615Z,100.00
2018-12-01T18:18:39.619Z,100.00
2018-12-01T18:21:08.587Z,100.00
2018-12-01T18:23:37.628Z,100.00
2018-12-01T18:26:08.217Z,100.00
2018-12-01T18:28:43.198Z,100.00
2018-12-01T18:31:14.099Z,99.92
2018-12-01T18:33:44.665Z,99.62
2018-12-01T18:36:14.719Z,100.00
2018-12-01T18:38:45.576Z,99.44
2018-12-01T18:41:14.540Z,100.00
2018-12-01T18:43:43.477Z,99.73
2018-12-01T18:46:14.379Z,100.00
2018-12-01T18:48:43.759Z,100.00
2018-12-01T18:51:12.781Z,100.00
2018-12-01T18:53:41.731Z,100.00
2018-12-01T18:56:10.759Z,100.00
2018-12-01T18:58:39.753Z,100.00
2018-12-01T19:01:09.962Z,100.00
2018-12-01T19:03:39.178Z,100.00
2018-12-01T19:06:08.890Z,100.00
2018-12-01T19:08:37.880Z,100.00
2018-12-01T19:11:07.616Z,100.00
2018-12-01T19:13:36.561Z,100.00
2018-12-01T19:16:05.772Z,100.00
2018-12-01T19:18:34.734Z,100.00
2018-12-01T19:21:03.781Z,100.00
2018-12-01T19:23:32.751Z,100.00
2018-12-01T19:26:01.720Z,100.00
2018-12-01T19:28:30.667Z,100.00
2018-12-01T19:30:59.618Z,100.00
2018-12-01T19:33:28.570Z,100.00
2018-12-01T19:35:57.522Z,100.00
2018-12-01T19:38:30.196Z,100.00
2018-12-01T19:41:00.501Z,100.00
2018-12-01T19:43:29.453Z,100.00
2018-12-01T19:45:58.391Z,100.00
2018-12-01T19:48:27.358Z,100.00
2018-12-01T19:50:56.325Z,100.00
2018-12-01T19:53:25.270Z,100.00
2018-12-01T19:55:54.897Z,100.00
2018-12-01T19:58:26.329Z,100.00
2018-12-01T20:00:57.164Z,100.00
2018-12-01T20:03:27.399Z,100.00
2018-12-01T20:05:56.357Z,100.00
2018-12-01T20:08:25.494Z,99.54
2018-12-01T20:10:57.766Z,100.00
2018-12-01T20:13:38.170Z,100.00
2018-12-01T20:16:42.803Z,100.00
2018-12-01T20:19:11.814Z,100.00
2018-12-01T20:21:40.757Z,100.00
2018-12-01T20:24:10.090Z,100.00
2018-12-01T20:26:40.362Z,100.00
2018-12-01T20:29:09.322Z,100.00
2018-12-01T20:31:38.262Z,100.00
2018-12-01T20:34:07.697Z,100.00
2018-12-01T20:36:43.164Z,100.00
2018-12-01T20:39:21.988Z,100.00
2018-12-01T20:41:50.962Z,100.00
2018-12-01T20:44:19.995Z,100.00
2018-12-01T20:46:48.993Z,100.00
2018-12-01T20:49:17.935Z,100.00
2018-12-01T20:51:46.927Z,100.00
2018-12-01T20:54:23.832Z,100.00
2018-12-01T20:56:55.715Z,100.00
2018-12-01T20:59:24.656Z,99.59
2018-12-01T21:01:53.671Z,99.98
2018-12-01T21:04:22.617Z,99.33
2018-12-01T21:06:51.589Z,98.55
2018-12-01T21:09:20.551Z,99.60
2018-12-01T21:11:49.501Z,100.00
2018-12-01T21:14:18.451Z,100.00
2018-12-01T21:16:47.420Z,100.00
2018-12-01T21:19:16.348Z,99.96
2018-12-01T21:21:45.291Z,99.29
2018-12-01T21:24:14.230Z,99.09
2018-12-01T21:26:43.233Z,99.61
2018-12-01T21:29:12.191Z,99.14
2018-12-01T21:31:41.152Z,99.30
2018-12-01T21:34:10.134Z,99.82
2018-12-01T21:36:39.085Z,99.97
2018-12-01T21:39:09.848Z,99.45
2018-12-01T21:41:38.799Z,99.99
2018-12-01T21:44:07.777Z,99.17
2018-12-01T21:46:36.715Z,99.50
2018-12-01T21:49:06.014Z,98.92
2018-12-01T21:51:34.953Z,99.44
2018-12-01T21:54:03.935Z,100.00
2018-12-01T21:56:32.875Z,100.00
2018-12-01T21:59:01.886Z,99.90
2018-12-01T22:01:30.853Z,99.70
2018-12-01T22:03:59.834Z,99.55
2018-12-01T22:06:28.780Z,99.98
2018-12-01T22:08:57.753Z,99.87
2018-12-01T22:11:26.717Z,100.00
2018-12-01T22:13:55.651Z,100.00
2018-12-01T22:16:24.605Z,100.00
2018-12-01T22:18:53.541Z,100.00
2018-12-01T22:21:22.556Z,100.00
2018-12-01T22:23:51.492Z,100.00
2018-12-01T22:26:20.428Z,99.54
2018-12-01T22:28:49.383Z,99.30
2018-12-01T22:31:18.336Z,99.99
2018-12-01T22:33:47.293Z,100.00
2018-12-01T22:36:16.232Z,99.85
2018-12-01T22:38:45.181Z,99.97
2018-12-01T22:41:14.136Z,99.98
2018-12-01T22:43:43.089Z,100.00
2018-12-01T22:46:12.134Z,100.00
2018-12-01T22:48:41.101Z,100.00
2018-12-01T22:51:10.050Z,100.00
2018-12-01T22:53:39.081Z,100.00
2018-12-01T22:56:08.813Z,99.49
2018-12-01T22:58:37.809Z,99.19
2018-12-01T23:01:07.402Z,98.85
2018-12-01T23:03:39.638Z,99.41
2018-12-01T23:06:08.574Z,99.11
2018-12-01T23:08:37.730Z,99.50
2018-12-01T23:11:07.220Z,99.53
2018-12-01T23:13:36.159Z,99.51
2018-12-01T23:16:05.105Z,99.10
2018-12-01T23:18:34.088Z,99.53
2018-12-01T23:21:03.044Z,99.47
2018-12-01T23:23:31.973Z,99.27
2018-12-01T23:26:00.938Z,98.93
2018-12-01T23:28:29.891Z,99.05
2018-12-01T23:30:58.848Z,99.61
2018-12-01T23:33:28.922Z,99.95
2018-12-01T23:35:57.888Z,99.70
2018-12-01T23:38:26.843Z,99.39
2018-12-01T23:40:55.786Z,99.86
2018-12-01T23:43:24.741Z,99.32
2018-12-01T23:45:53.689Z,99.55
2018-12-01T23:48:22.633Z,99.36
2018-12-01T23:50:53.521Z,99.74
2018-12-01T23:53:23.133Z,100.00
2018-12-01T23:55:52.080Z,100.00
2018-12-01T23:58:21.063Z,100.00
